Time;durP1;ratioP1;P1;durP2;ratioP2;P2;SDS_P1;SDS_P2;PMS_P1;PMS_P2;Temp;Humidity;BMP_temperature;BMP_pressure;BME280_temperature;BME280_humidity;BME280_pressure;Samples;Min_cycle;Max_cycle;Signal;HPM_P1;HPM_P2
2022/10/14 00:00:04;;;;;;;18.23;10.15;;;11.80;99.90;;;;;;4214713;28;20040;-85
2022/10/14 00:02:04;;;;;;;20.15;10.75;;;11.80;99.90;;;;;;4215921;28;20036;-85
2022/10/14 00:04:05;;;;;;;21.17;10.50;;;11.70;99.90;;;;;;4218439;28;20044;-85
2022/10/14 00:06:10;;;;;;;17.60;9.55;;;11.70;99.90;;;;;;4216371;28;20059;-85
2022/10/14 00:08:11;;;;;;;19.45;10.75;;;11.70;99.90;;;;;;4199409;28;20060;-85
2022/10/14 00:10:11;;;;;;;20.55;10.90;;;11.70;99.90;;;;;;4217429;28;20052;-86
2022/10/14 00:12:12;;;;;;;24.13;11.10;;;11.70;99.90;;;;;;4216717;28;20090;-85
2022/10/14 00:14:16;;;;;;;95.97;12.18;;;11.70;99.90;;;;;;4218734;28;20666;-85
2022/10/14 00:16:20;;;;;;;38.25;11.60;;;12.10;99.90;;;;;;4201095;28;20044;-85
2022/10/14 00:18:20;;;;;;;162.27;14.10;;;11.70;99.90;;;;;;4203693;28;20052;-85
2022/10/14 00:20:21;;;;;;;94.28;12.13;;;11.70;99.90;;;;;;4221408;28;20115;-85
2022/10/14 00:22:22;;;;;;;205.27;13.20;;;11.80;99.90;;;;;;4223231;28;20465;-85
2022/10/14 00:24:23;;;;;;;205.77;13.52;;;11.80;99.90;;;;;;4220341;28;20072;-86
2022/10/14 00:26:24;;;;;;;175.05;12.68;;;11.60;99.90;;;;;;4219440;28;20119;-85
2022/10/14 00:28:25;;;;;;;288.63;14.20;;;11.70;99.90;;;;;;4216378;28;20072;-85
2022/10/14 00:30:26;;;;;;;106.82;10.10;;;11.60;99.90;;;;;;4217637;28;20047;-84
2022/10/14 00:32:27;;;;;;;112.30;11.43;;;11.60;99.90;;;;;;4216423;28;20106;-85
2022/10/14 00:34:27;;;;;;;74.93;10.18;;;11.60;99.90;;;;;;4217856;28;20036;-85
2022/10/14 00:36:28;;;;;;;69.22;10.00;;;11.50;99.90;;;;;;4215931;28;20044;-85
2022/10/14 00:38:29;;;;;;;95.85;10.45;;;12.00;99.90;;;;;;4217662;28;20044;-85
2022/10/14 00:40:30;;;;;;;68.07;9.68;;;11.50;99.90;;;;;;4217474;28;20071;-85
2022/10/14 00:42:33;;;;;;;56.45;8.82;;;11.50;99.90;;;;;;4231081;28;20043;-85
2022/10/14 00:44:34;;;;;;;102.78;9.75;;;11.50;99.90;;;;;;4232838;28;20050;-85
2022/10/14 00:46:38;;;;;;;67.07;9.23;;;11.50;99.90;;;;;;4232722;28;20569;-85
2022/10/14 00:48:39;;;;;;;63.70;10.13;;;11.40;99.90;;;;;;4234132;28;20394;-85
2022/10/14 00:50:44;;;;;;;23.95;8.18;;;11.40;99.90;;;;;;4234039;28;20047;-85
2022/10/14 00:52:46;;;;;;;18.25;8.57;;;11.40;99.90;;;;;;4233196;28;20130;-85
2022/10/14 00:54:57;;;;;;;42.17;9.43;;;11.40;99.90;;;;;;4233710;28;20062;-85
2022/10/14 00:56:58;;;;;;;67.78;10.05;;;11.40;99.90;;;;;;4233812;28;20108;-85
2022/10/14 00:59:01;;;;;;;28.63;8.55;;;11.70;99.90;;;;;;4233863;28;20035;-85
2022/10/14 01:01:01;;;;;;;24.83;8.98;;;11.40;99.90;;;;;;4233622;28;20043;-85
2022/10/14 01:03:16;;;;;;;48.63;8.77;;;11.30;99.90;;;;;;4232889;28;20043;-85
2022/10/14 01:05:19;;;;;;;41.83;9.20;;;11.30;99.90;;;;;;4231879;28;20051;-85
2022/10/14 01:07:28;;;;;;;37.45;9.18;;;11.30;99.90;;;;;;4231935;28;20075;-85
2022/10/14 01:09:38;;;;;;;;;;;11.50;99.90;;;;;;4216659;28;20032;-85
2022/10/14 01:11:55;;;;;;;37.10;9.20;;;11.30;99.90;;;;;;4232407;28;19971;-85
2022/10/14 01:14:24;;;;;;;82.88;10.20;;;11.20;99.90;;;;;;4231860;28;20052;-85
2022/10/14 01:16:42;;;;;;;89.43;9.93;;;11.20;99.90;;;;;;4232536;28;20047;-85
2022/10/14 01:18:57;;;;;;;66.22;9.13;;;11.20;99.90;;;;;;4232744;28;20079;-85
2022/10/14 01:21:36;;;;;;;32.08;9.15;;;11.20;99.90;;;;;;4233539;28;20070;-85
2022/10/14 01:23:56;;;;;;;71.80;9.48;;;11.10;99.90;;;;;;4232823;28;20131;-85
2022/10/14 01:26:19;;;;;;;196.80;13.13;;;11.10;99.90;;;;;;4233040;28;20040;-85
2022/10/14 01:28:31;;;;;;;142.20;11.80;;;11.10;99.90;;;;;;4233891;28;20059;-85
2022/10/14 01:30:45;;;;;;;114.07;10.43;;;11.00;99.90;;;;;;4232144;28;20501;-85
2022/10/14 01:32:55;;;;;;;198.40;13.00;;;11.00;99.90;;;;;;4215808;28;20059;-85
2022/10/14 01:35:07;;;;;;;152.38;11.68;;;11.00;99.90;;;;;;4214250;28;20054;-85
2022/10/14 01:37:14;;;;;;;97.68;10.43;;;11.00;99.90;;;;;;4249335;27;20046;-85
2022/10/14 01:39:23;;;;;;;66.03;10.25;;;11.30;99.90;;;;;;4231987;28;20048;-85
2022/10/14 01:41:42;;;;;;;136.13;11.32;;;10.90;99.90;;;;;;4231800;28;20047;-85
2022/10/14 01:43:45;;;;;;;126.67;11.30;;;10.90;99.90;;;;;;4215295;28;20512;-85
2022/10/14 01:45:48;;;;;;;96.38;10.60;;;10.90;99.90;;;;;;4232577;28;20044;-85
2022/10/14 01:47:51;;;;;;;104.32;10.32;;;10.80;99.90;;;;;;4214924;28;20044;-85
2022/10/14 01:49:57;;;;;;;129.45;10.88;;;10.80;99.90;;;;;;4232115;28;20054;-85
2022/10/14 01:52:12;;;;;;;181.80;11.43;;;10.80;99.90;;;;;;4232220;28;20096;-85
2022/10/14 01:54:40;;;;;;;115.50;9.25;;;10.90;99.90;;;;;;4231992;28;20180;-85
2022/10/14 01:56:43;;;;;;;173.30;10.15;;;10.80;99.90;;;;;;4230672;28;20064;-85
2022/10/14 01:58:45;;;;;;;194.50;10.85;;;10.70;99.90;;;;;;4231697;28;20079;-85
2022/10/14 02:00:46;;;;;;;94.25;8.52;;;10.70;99.90;;;;;;4232638;28;20052;-85
2022/10/14 02:02:47;;;;;;;406.65;16.90;;;10.70;99.90;;;;;;4231750;28;20039;-86
2022/10/14 02:04:52;;;;;;;427.52;16.88;;;10.60;99.90;;;;;;4231558;28;20051;-85
2022/10/14 02:07:05;;;;;;;77.25;8.32;;;10.60;99.90;;;;;;4232454;28;20036;-86
2022/10/14 02:09:34;;;;;;;216.68;12.13;;;10.60;99.90;;;;;;4231636;28;20044;-85
2022/10/14 02:12:06;;;;;;;216.82;12.05;;;10.60;99.90;;;;;;4207223;28;20056;-86
2022/10/14 02:14:18;;;;;;;314.92;14.00;;;10.70;99.90;;;;;;4214043;28;20056;-85
2022/10/14 02:16:41;;;;;;;231.75;12.88;;;10.70;99.90;;;;;;4231589;28;20489;-86
2022/10/14 02:18:55;;;;;;;170.52;11.13;;;11.10;99.90;;;;;;4231558;28;20052;-85
2022/10/14 02:20:58;;;;;;;160.48;10.20;;;10.60;99.90;;;;;;4215973;28;20040;-85
2022/10/14 02:23:19;;;;;;;226.75;11.02;;;10.60;99.90;;;;;;4231595;28;20049;-85
2022/10/14 02:25:34;;;;;;;161.88;10.60;;;10.60;99.90;;;;;;4215248;28;20052;-85
2022/10/14 02:27:37;;;;;;;272.10;13.52;;;10.90;99.90;;;;;;4214391;28;20528;-86
2022/10/14 02:29:40;;;;;;;122.97;8.57;;;10.60;99.90;;;;;;4215350;28;20044;-85
2022/10/14 02:31:43;;;;;;;96.60;8.85;;;10.60;99.90;;;;;;4215655;28;20425;-85
2022/10/14 02:33:50;;;;;;;60.22;8.20;;;10.80;99.90;;;;;;4214353;28;20040;-85
2022/10/14 02:35:52;;;;;;;72.47;8.32;;;10.70;99.90;;;;;;4214302;28;20056;-85
2022/10/14 02:37:55;;;;;;;67.90;10.15;;;10.60;99.90;;;;;;4215690;28;20481;-86
2022/10/14 02:40:03;;;;;;;112.28;9.85;;;10.90;99.90;;;;;;4197385;28;20534;-85
2022/10/14 02:42:05;;;;;;;93.05;9.70;;;10.60;99.90;;;;;;4231133;28;20055;-85
2022/10/14 02:44:06;;;;;;;60.35;9.90;;;10.60;99.90;;;;;;4214121;28;20095;-86
2022/10/14 02:46:08;;;;;;;103.68;9.38;;;10.70;99.90;;;;;;4214133;28;20044;-86
2022/10/14 02:48:10;;;;;;;119.80;10.68;;;10.50;99.90;;;;;;4215334;28;20093;-85
2022/10/14 02:50:11;;;;;;;188.23;12.02;;;10.50;99.90;;;;;;4214115;28;20058;-85
2022/10/14 02:52:11;;;;;;;191.77;11.32;;;10.50;99.90;;;;;;4214111;28;20048;-85
2022/10/14 02:54:12;;;;;;;210.60;11.63;;;10.50;99.90;;;;;;4213748;28;20413;-86
2022/10/14 02:56:13;;;;;;;163.75;10.60;;;10.50;99.90;;;;;;4214078;28;20454;-85
2022/10/14 02:58:15;;;;;;;182.70;10.20;;;10.40;99.90;;;;;;4214986;28;20048;-85
2022/10/14 03:00:16;;;;;;;225.52;11.23;;;10.50;99.90;;;;;;4197137;28;20142;-85
2022/10/14 03:02:17;;;;;;;130.23;9.55;;;10.30;99.90;;;;;;4215303;28;20129;-85
2022/10/14 03:04:18;;;;;;;175.48;10.43;;;10.40;99.90;;;;;;4214558;28;20044;-85
2022/10/14 03:06:18;;;;;;;21.88;6.10;;;10.30;99.90;;;;;;4213280;28;20050;-85
2022/10/14 03:08:19;;;;;;;104.95;7.88;;;10.80;99.90;;;;;;4213107;28;20490;-85
2022/10/14 03:10:20;;;;;;;141.90;8.20;;;10.20;99.90;;;;;;4213043;28;20130;-85
2022/10/14 03:12:20;;;;;;;179.50;8.93;;;10.20;99.90;;;;;;4230447;28;20053;-86
2022/10/14 03:14:21;;;;;;;141.63;8.55;;;10.40;99.90;;;;;;4215075;28;20741;-85
2022/10/14 03:16:22;;;;;;;128.88;7.20;;;10.20;99.90;;;;;;4215575;28;20055;-85
2022/10/14 03:18:22;;;;;;;178.60;9.02;;;10.10;99.90;;;;;;4214865;28;20050;-85
2022/10/14 03:20:23;;;;;;;121.60;7.32;;;10.10;99.90;;;;;;4213794;28;20051;-85
2022/10/14 03:22:24;;;;;;;107.45;7.00;;;10.10;99.90;;;;;;4196848;28;20059;-85
2022/10/14 03:24:25;;;;;;;147.75;8.05;;;10.10;99.90;;;;;;4213331;28;20040;-85
2022/10/14 03:26:26;;;;;;;102.65;7.05;;;10.40;99.90;;;;;;4213583;28;20519;-85
2022/10/14 03:28:27;;;;;;;138.20;8.23;;;10.10;99.90;;;;;;4213655;28;20043;-85
2022/10/14 03:30:27;;;;;;;30.70;6.10;;;10.00;99.90;;;;;;4214480;28;20137;-85
2022/10/14 03:32:28;;;;;;;164.35;8.30;;;10.00;99.90;;;;;;4213949;28;20135;-85
2022/10/14 03:34:29;;;;;;;167.23;8.77;;;10.00;99.90;;;;;;4215037;28;20032;-85
2022/10/14 03:36:29;;;;;;;142.60;8.70;;;10.00;99.90;;;;;;4213145;28;20063;-85
2022/10/14 03:38:30;;;;;;;126.93;7.43;;;10.00;99.90;;;;;;4214126;28;20048;-84
2022/10/14 03:40:31;;;;;;;75.85;5.97;;;10.10;99.90;;;;;;4213595;28;20051;-85
2022/10/14 03:42:31;;;;;;;123.25;6.72;;;10.00;99.90;;;;;;4228088;28;20040;-84
2022/10/14 03:44:33;;;;;;;137.35;8.20;;;10.00;99.90;;;;;;4231365;28;20036;-85
2022/10/14 03:46:34;;;;;;;63.42;5.38;;;10.20;99.90;;;;;;4230458;28;20036;-86
2022/10/14 03:48:35;;;;;;;145.43;7.13;;;9.90;99.90;;;;;;4230778;28;20463;-86
2022/10/14 03:50:36;;;;;;;59.00;4.90;;;10.10;99.90;;;;;;4230640;28;20440;-86
2022/10/14 03:52:39;;;;;;;130.52;7.05;;;10.50;99.90;;;;;;4231599;28;20039;-86
2022/10/14 03:54:40;;;;;;;121.75;6.82;;;9.80;99.90;;;;;;4230076;28;20108;-86
2022/10/14 03:56:41;;;;;;;122.50;6.85;;;10.10;99.90;;;;;;4231113;28;20466;-86
2022/10/14 03:58:41;;;;;;;113.43;6.53;;;10.00;99.90;;;;;;4231258;28;20127;-85
2022/10/14 04:00:43;;;;;;;105.78;6.45;;;10.00;99.90;;;;;;4213720;28;20047;-86
2022/10/14 04:02:45;;;;;;;82.40;6.38;;;9.90;99.90;;;;;;4230258;28;20048;-86
2022/10/14 04:04:46;;;;;;;89.28;6.03;;;9.90;99.90;;;;;;4231621;28;20443;-85
2022/10/14 04:06:46;;;;;;;114.40;6.35;;;9.90;99.90;;;;;;4213451;28;20044;-86
2022/10/14 04:08:48;;;;;;;112.32;6.30;;;10.00;99.90;;;;;;4230103;28;20075;-86
2022/10/14 04:10:52;;;;;;;84.53;6.43;;;9.90;99.90;;;;;;4220476;28;20079;-85
2022/10/14 04:12:54;;;;;;;102.80;6.40;;;10.60;99.90;;;;;;4212883;28;20494;-85
2022/10/14 04:14:57;;;;;;;67.90;5.60;;;9.90;99.90;;;;;;4214629;28;20436;-86
2022/10/14 04:16:58;;;;;;;79.38;5.80;;;9.90;99.90;;;;;;4196514;28;20040;-86
2022/10/14 04:18:59;;;;;;;114.63;6.55;;;10.70;99.90;;;;;;4213911;28;20093;-85
2022/10/14 04:21:05;;;;;;;107.63;6.45;;;9.90;99.90;;;;;;4214463;28;20044;-85
2022/10/14 04:23:06;;;;;;;86.20;5.55;;;9.90;99.90;;;;;;4214751;28;20119;-85
2022/10/14 04:25:07;;;;;;;69.05;5.57;;;9.90;99.90;;;;;;4213429;28;20052;-86
2022/10/14 04:27:08;;;;;;;33.10;4.90;;;9.90;99.90;;;;;;4214791;28;20046;-86
2022/10/14 04:29:09;;;;;;;75.03;6.03;;;10.10;99.90;;;;;;4214425;28;20036;-86
2022/10/14 04:31:10;;;;;;;37.08;4.95;;;10.00;99.90;;;;;;4213123;28;20052;-86
2022/10/14 04:33:13;;;;;;;64.97;6.10;;;10.00;99.90;;;;;;4212984;28;20573;-86
2022/10/14 04:35:14;;;;;;;54.90;5.55;;;10.00;99.90;;;;;;4196262;28;20589;-86
2022/10/14 04:37:15;;;;;;;43.92;5.28;;;10.00;99.90;;;;;;4212878;28;20040;-86
2022/10/14 04:39:15;;;;;;;78.95;6.20;;;10.00;99.90;;;;;;4213394;28;20079;-85
2022/10/14 04:41:16;;;;;;;87.43;6.82;;;10.00;99.90;;;;;;4199434;28;20044;-85
2022/10/14 04:43:17;;;;;;;62.28;6.80;;;10.10;99.90;;;;;;4229673;28;20051;-85
2022/10/14 04:45:18;;;;;;;63.95;6.68;;;10.10;99.90;;;;;;4231567;28;20040;-86
2022/10/14 04:47:18;;;;;;;97.05;7.20;;;10.10;99.90;;;;;;4231819;28;20052;-85
2022/10/14 04:49:19;;;;;;;75.30;6.50;;;10.10;99.90;;;;;;4235067;28;20040;-86
2022/10/14 04:51:20;;;;;;;66.68;6.95;;;10.10;99.90;;;;;;4220991;28;20063;-85
2022/10/14 04:53:21;;;;;;;62.05;7.32;;;10.10;99.90;;;;;;4233781;28;20096;-86
2022/10/14 04:55:22;;;;;;;114.28;7.70;;;10.20;99.90;;;;;;4234475;28;20047;-86
2022/10/14 04:57:22;;;;;;;65.68;7.10;;;10.20;99.90;;;;;;4235214;28;20132;-86
2022/10/14 04:59:23;;;;;;;79.53;8.50;;;10.20;99.90;;;;;;4232799;28;20088;-86
2022/10/14 05:01:24;;;;;;;82.95;7.72;;;10.20;99.90;;;;;;4236216;28;20128;-86
2022/10/14 05:03:27;;;;;;;52.58;7.38;;;10.20;99.90;;;;;;4233682;28;20574;-86
2022/10/14 05:05:28;;;;;;;48.78;5.30;;;10.30;99.90;;;;;;4233061;28;20044;-86
2022/10/14 05:07:30;;;;;;;55.30;6.03;;;10.20;99.90;;;;;;4233961;28;20048;-86
2022/10/14 05:09:30;;;;;;;42.38;5.70;;;10.20;99.90;;;;;;4233945;28;20086;-85
2022/10/14 05:11:31;;;;;;;79.88;6.18;;;10.30;99.90;;;;;;4232422;28;20504;-85
2022/10/14 05:13:32;;;;;;;64.97;6.03;;;10.20;99.90;;;;;;4232612;28;20055;-86
2022/10/14 05:15:33;;;;;;;78.57;6.10;;;10.30;99.90;;;;;;4232478;28;20471;-85
2022/10/14 05:17:36;;;;;;;98.15;6.32;;;10.20;99.90;;;;;;4232079;28;20040;-85
2022/10/14 05:19:37;;;;;;;82.57;5.55;;;10.20;99.90;;;;;;4215361;28;20059;-85
2022/10/14 05:21:38;;;;;;;51.75;5.10;;;10.20;99.90;;;;;;4233634;28;20040;-86
2022/10/14 05:23:38;;;;;;;98.00;6.05;;;10.20;99.90;;;;;;4233601;28;20061;-86
2022/10/14 05:25:39;;;;;;;38.83;5.13;;;10.40;99.90;;;;;;4232833;28;20043;-85
2022/10/14 05:27:40;;;;;;;107.60;6.55;;;10.20;99.90;;;;;;4214898;28;20047;-86
2022/10/14 05:29:42;;;;;;;61.70;4.85;;;10.70;99.90;;;;;;4232294;28;20051;-85
2022/10/14 05:31:43;;;;;;;41.63;5.90;;;10.20;99.90;;;;;;4232889;28;20071;-85
2022/10/14 05:33:44;;;;;;;69.03;5.97;;;10.10;99.90;;;;;;4232295;28;20108;-85
2022/10/14 05:35:45;;;;;;;49.83;4.97;;;10.10;99.90;;;;;;4233534;28;20047;-85
2022/10/14 05:37:46;;;;;;;74.38;6.28;;;10.10;99.90;;;;;;4233544;28;20039;-85
2022/10/14 05:39:47;;;;;;;55.38;5.50;;;10.10;99.90;;;;;;4233493;28;20092;-84
2022/10/14 05:41:47;;;;;;;68.32;5.95;;;9.70;99.90;;;;;;4221840;28;20052;-84
2022/10/14 05:43:48;;;;;;;53.65;6.45;;;10.10;99.90;;;;;;4227218;28;20512;-84
2022/10/14 05:45:49;;;;;;;47.05;6.55;;;10.10;99.90;;;;;;4233618;28;20048;-84
2022/10/14 05:47:53;;;;;;;47.75;5.65;;;10.20;99.90;;;;;;4232433;28;20051;-84
2022/10/14 05:49:55;;;;;;;74.47;6.55;;;10.20;99.90;;;;;;4232564;28;20039;-84
2022/10/14 05:51:56;;;;;;;75.28;6.63;;;10.20;99.90;;;;;;4233357;28;20043;-84
2022/10/14 05:53:57;;;;;;;56.90;6.55;;;10.10;99.90;;;;;;4232546;28;20058;-85
2022/10/14 05:56:06;;;;;;;67.22;7.10;;;10.10;99.90;;;;;;4233593;28;20051;-85
2022/10/14 05:58:07;;;;;;;55.72;5.70;;;10.20;99.90;;;;;;4233558;27;20047;-85
2022/10/14 06:00:09;;;;;;;29.98;5.70;;;10.10;99.90;;;;;;4232624;28;20560;-85
2022/10/14 06:02:11;;;;;;;43.08;6.22;;;10.10;99.90;;;;;;4231787;28;20054;-85
2022/10/14 06:04:17;;;;;;;70.18;6.75;;;10.10;99.90;;;;;;4233020;28;20071;-85
2022/10/14 06:06:18;;;;;;;41.58;5.88;;;10.10;99.90;;;;;;4231916;28;20104;-85
2022/10/14 06:08:21;;;;;;;54.10;6.82;;;10.10;99.90;;;;;;4233455;27;20043;-85
2022/10/14 06:10:22;;;;;;;53.75;6.60;;;10.10;99.90;;;;;;4234358;28;20082;-85
2022/10/14 06:12:23;;;;;;;52.17;7.50;;;10.10;99.90;;;;;;4233145;28;20081;-85
2022/10/14 06:14:24;;;;;;;56.60;6.85;;;10.10;99.90;;;;;;4232661;27;20043;-85
2022/10/14 06:16:25;;;;;;;42.97;7.25;;;10.10;99.90;;;;;;4233314;28;20055;-85
2022/10/14 06:18:26;;;;;;;54.38;7.30;;;10.00;99.90;;;;;;4232065;28;20063;-84
2022/10/14 06:20:28;;;;;;;53.92;6.35;;;10.10;99.90;;;;;;4231904;28;20054;-85
2022/10/14 06:22:29;;;;;;;66.28;7.38;;;10.20;99.90;;;;;;4231995;28;20048;-87
2022/10/14 06:24:30;;;;;;;59.42;6.97;;;10.20;99.90;;;;;;4231396;28;20043;-82
2022/10/14 06:26:31;;;;;;;64.22;7.18;;;10.20;99.90;;;;;;4232638;28;20043;-84
2022/10/14 06:28:32;;;;;;;64.85;6.53;;;10.20;99.90;;;;;;4232648;28;20051;-84
2022/10/14 06:30:32;;;;;;;79.35;7.78;;;10.20;99.90;;;;;;4232939;28;20039;-84
2022/10/14 06:32:33;;;;;;;48.08;6.10;;;10.20;99.90;;;;;;4232866;28;20446;-84
2022/10/14 06:34:34;;;;;;;32.45;6.63;;;10.20;99.90;;;;;;4232238;28;20039;-84
2022/10/14 06:36:35;;;;;;;47.20;7.20;;;10.20;99.90;;;;;;4220578;28;20115;-84
2022/10/14 06:38:36;;;;;;;67.95;7.65;;;10.20;99.90;;;;;;4215497;28;20137;-84
2022/10/14 06:40:37;;;;;;;48.30;6.50;;;10.20;99.90;;;;;;4215369;28;20589;-84
2022/10/14 06:42:38;;;;;;;50.70;6.68;;;10.20;99.90;;;;;;4215017;28;20497;-84
2022/10/14 06:44:39;;;;;;;99.18;8.90;;;10.20;99.90;;;;;;4215096;28;20078;-84
2022/10/14 06:46:39;;;;;;;57.97;6.90;;;10.30;99.90;;;;;;4215305;28;20554;-84
2022/10/14 06:48:40;;;;;;;44.35;7.13;;;10.30;99.90;;;;;;4216920;28;20047;-84
2022/10/14 06:50:41;;;;;;;85.28;9.48;;;10.30;99.90;;;;;;4229707;28;20040;-84
2022/10/14 06:52:46;;;;;;;69.15;9.73;;;10.30;99.90;;;;;;4232530;28;20050;-83
2022/10/14 06:54:47;;;;;;;63.58;7.72;;;10.30;99.90;;;;;;4215639;28;20062;-84
2022/10/14 06:56:48;;;;;;;57.60;7.65;;;10.40;99.90;;;;;;4215677;28;20044;-86
2022/10/14 06:58:55;;;;;;;57.78;8.60;;;10.40;99.90;;;;;;4197916;28;20055;-85
2022/10/14 07:01:06;;;;;;;37.60;7.03;;;10.40;99.90;;;;;;4214438;28;20066;-85
2022/10/14 07:03:07;;;;;;;65.88;7.60;;;10.40;99.90;;;;;;4214676;28;20056;-85
2022/10/14 07:05:10;;;;;;;98.00;8.32;;;10.50;99.90;;;;;;4215890;28;20449;-84
2022/10/14 07:07:10;;;;;;;53.85;8.35;;;10.50;99.90;;;;;;4215972;28;20044;-85
2022/10/14 07:09:11;;;;;;;47.50;8.60;;;10.50;99.90;;;;;;4215804;28;20454;-85
2022/10/14 07:11:12;;;;;;;51.00;8.20;;;10.50;99.90;;;;;;4215878;28;20394;-85
2022/10/14 07:13:13;;;;;;;71.20;9.88;;;10.50;99.90;;;;;;4215918;28;20048;-84
2022/10/14 07:15:14;;;;;;;55.97;9.07;;;10.50;99.90;;;;;;4216347;28;20055;-84
2022/10/14 07:17:15;;;;;;;93.78;10.30;;;10.50;99.90;;;;;;4216882;28;20559;-83
2022/10/14 07:19:16;;;;;;;90.95;9.25;;;10.60;99.90;;;;;;4223977;28;20046;-82
2022/10/14 07:21:17;;;;;;;92.13;10.40;;;10.60;99.90;;;;;;4215166;28;20067;-83
2022/10/14 07:23:18;;;;;;;87.25;9.50;;;10.50;99.90;;;;;;4223034;28;20401;-83
2022/10/14 07:25:20;;;;;;;59.63;9.32;;;10.60;99.90;;;;;;4231927;28;20046;-82
2022/10/14 07:27:21;;;;;;;97.35;11.52;;;10.60;99.90;;;;;;4233918;28;20433;-84
2022/10/14 07:29:22;;;;;;;85.30;10.88;;;10.60;99.90;;;;;;4234573;28;20122;-84
2022/10/14 07:31:23;;;;;;;84.60;11.02;;;10.90;99.90;;;;;;4234795;28;20043;-84
2022/10/14 07:33:26;;;;;;;86.43;10.80;;;10.60;99.90;;;;;;4235605;28;20047;-84
2022/10/14 07:35:28;;;;;;;52.88;10.05;;;10.60;99.90;;;;;;4237222;28;20046;-83
2022/10/14 07:37:29;;;;;;;54.60;11.05;;;10.70;99.90;;;;;;4243767;28;20027;-84
2022/10/14 07:39:30;;;;;;;68.88;10.95;;;10.70;99.90;;;;;;4240880;28;20051;-84
2022/10/14 07:41:33;;;;;;;52.45;10.30;;;10.70;99.90;;;;;;4226831;28;20040;-84
2022/10/14 07:43:35;;;;;;;43.10;10.90;;;10.70;99.90;;;;;;4215787;28;20489;-85
2022/10/14 07:45:42;;;;;;;51.42;9.50;;;10.80;99.90;;;;;;4214613;28;20036;-84
2022/10/14 07:47:47;;;;;;;45.88;9.90;;;10.80;99.90;;;;;;4216856;28;20123;-87
2022/10/14 07:49:48;;;;;;;50.65;9.95;;;10.70;99.90;;;;;;4214578;28;20044;-86
2022/10/14 07:51:49;;;;;;;51.80;12.18;;;10.80;99.90;;;;;;4216230;28;20390;-87
2022/10/14 07:53:53;;;;;;;70.68;11.77;;;10.80;99.90;;;;;;4215147;28;20091;-84
2022/10/14 07:55:57;;;;;;;61.80;11.52;;;10.80;99.90;;;;;;4218673;28;20040;-84
2022/10/14 07:58:01;;;;;;;69.38;10.93;;;10.90;99.90;;;;;;4219299;28;20047;-84
2022/10/14 08:00:03;;;;;;;54.60;11.45;;;10.80;99.90;;;;;;4219395;28;20050;-85
2022/10/14 08:02:04;;;;;;;53.88;10.35;;;10.80;99.90;;;;;;4216400;28;20079;-86
2022/10/14 08:04:05;;;;;;;51.67;11.43;;;10.80;99.90;;;;;;4208802;28;20102;-85
2022/10/14 08:06:06;;;;;;;49.15;11.02;;;10.80;99.90;;;;;;4231283;28;20040;-85
2022/10/14 08:08:08;;;;;;;53.70;11.40;;;10.80;99.90;;;;;;4233127;28;20042;-83
2022/10/14 08:10:08;;;;;;;54.90;11.82;;;10.90;99.90;;;;;;4230932;28;20074;-84
2022/10/14 08:12:09;;;;;;;65.28;12.23;;;10.90;99.90;;;;;;4231965;28;20493;-84
2022/10/14 08:14:11;;;;;;;65.30;11.95;;;11.00;99.90;;;;;;4220692;28;20063;-84
2022/10/14 08:16:27;;;;;;;57.75;11.73;;;10.20;99.90;;;;;;4216207;28;20032;-83
2022/10/14 08:18:28;;;;;;;54.05;11.82;;;11.00;99.90;;;;;;4214500;28;20548;-84
2022/10/14 08:20:33;;;;;;;54.75;11.63;;;11.00;99.90;;;;;;4214824;28;20040;-83
2022/10/14 08:22:34;;;;;;;59.45;12.70;;;11.00;99.90;;;;;;4215482;28;20044;-84
2022/10/14 08:24:35;;;;;;;54.80;13.95;;;11.10;99.90;;;;;;4217566;28;20052;-85
2022/10/14 08:26:38;;;;;;;68.65;13.88;;;11.10;99.90;;;;;;4221473;28;20075;-84
2022/10/14 08:28:40;;;;;;;48.28;11.52;;;11.10;99.90;;;;;;4229021;28;20059;-84
2022/10/14 08:30:41;;;;;;;56.42;13.32;;;11.10;99.90;;;;;;4228688;28;20101;-84
2022/10/14 08:32:43;;;;;;;58.90;12.85;;;11.10;99.90;;;;;;4228991;28;20048;-84
2022/10/14 08:34:44;;;;;;;54.45;12.50;;;11.20;99.90;;;;;;4209657;28;20051;-84
2022/10/14 08:36:46;;;;;;;53.67;13.13;;;11.20;99.90;;;;;;4226344;28;20064;-84
2022/10/14 08:38:49;;;;;;;50.88;12.73;;;11.20;99.90;;;;;;4217233;28;20044;-83
2022/10/14 08:41:24;;;;;;;49.30;13.77;;;11.20;99.90;;;;;;4218019;28;20040;-84
2022/10/14 08:43:32;;;;;;;51.38;13.18;;;11.30;99.90;;;;;;4216070;28;20514;-84
2022/10/14 08:45:36;;;;;;;50.45;13.38;;;11.30;99.90;;;;;;4217723;28;20047;-84
2022/10/14 08:47:41;;;;;;;44.67;13.07;;;11.40;99.90;;;;;;4216388;28;20123;-84
2022/10/14 08:50:01;;;;;;;46.65;12.27;;;11.40;99.90;;;;;;4221593;28;20079;-84
2022/10/14 08:52:11;;;;;;;43.90;13.30;;;11.40;99.90;;;;;;4216235;28;20537;-84
2022/10/14 08:54:20;;;;;;;54.25;13.43;;;11.50;99.90;;;;;;4217381;28;20058;-84
2022/10/14 08:56:23;;;;;;;43.75;13.07;;;11.50;99.90;;;;;;4216075;28;20051;-84
2022/10/14 08:58:46;;;;;;;43.67;12.85;;;11.50;99.90;;;;;;4217500;28;20093;-84
2022/10/14 09:00:50;;;;;;;41.47;14.07;;;11.60;99.90;;;;;;4216984;28;20386;-84
2022/10/14 09:02:51;;;;;;;43.67;13.85;;;11.30;99.90;;;;;;4217622;28;20044;-84
2022/10/14 09:04:52;;;;;;;47.97;14.80;;;11.70;99.90;;;;;;4218597;28;20044;-84
2022/10/14 09:06:54;;;;;;;42.67;13.15;;;11.80;99.90;;;;;;4200684;28;20106;-84
2022/10/14 09:09:06;;;;;;;37.90;11.75;;;11.90;99.90;;;;;;4218470;28;20136;-85
2022/10/14 09:11:12;;;;;;;38.28;12.95;;;12.00;99.90;;;;;;4217501;28;20521;-85
2022/10/14 09:13:22;;;;;;;40.53;12.90;;;12.00;99.90;;;;;;4216060;28;20059;-85
2022/10/14 09:15:33;;;;;;;35.95;12.00;;;12.10;99.90;;;;;;4218378;28;20119;-85
2022/10/14 09:17:45;;;;;;;36.55;12.60;;;11.90;99.90;;;;;;4200715;28;20127;-85
2022/10/14 09:19:51;;;;;;;35.55;12.32;;;12.10;99.90;;;;;;4217548;28;20075;-85
2022/10/14 09:21:53;;;;;;;36.63;11.68;;;12.00;99.90;;;;;;4216565;28;20054;-85
2022/10/14 09:24:00;;;;;;;31.80;12.57;;;12.10;99.90;;;;;;4215583;28;20075;-84
2022/10/14 09:26:10;;;;;;;34.20;12.00;;;12.10;99.90;;;;;;4215709;28;20517;-85
2022/10/14 09:28:12;;;;;;;38.88;12.40;;;12.10;99.90;;;;;;4216713;28;20048;-85
2022/10/14 09:30:15;;;;;;;33.75;13.23;;;12.20;99.90;;;;;;4216644;28;20082;-85
2022/10/14 09:32:30;;;;;;;36.28;12.73;;;12.20;99.90;;;;;;4215809;28;20073;-85
2022/10/14 09:34:35;;;;;;;34.03;12.40;;;12.20;99.90;;;;;;4215385;28;20054;-84
2022/10/14 09:36:36;;;;;;;36.40;12.15;;;12.30;99.90;;;;;;4216637;28;20044;-84
2022/10/14 09:38:36;;;;;;;30.90;11.55;;;12.30;99.90;;;;;;4215149;28;20612;-85
2022/10/14 09:40:41;;;;;;;28.15;11.20;;;12.40;99.90;;;;;;4216042;28;20076;-84
2022/10/14 09:42:57;;;;;;;28.90;11.77;;;12.50;99.90;;;;;;4215331;28;20048;-85
2022/10/14 09:45:16;;;;;;;27.17;11.07;;;12.60;99.90;;;;;;4198190;28;20049;-85
2022/10/14 09:47:18;;;;;;;28.02;12.48;;;12.60;99.90;;;;;;4215293;28;20505;-85
2022/10/14 09:49:28;;;;;;;27.65;11.45;;;12.50;99.90;;;;;;4216277;28;20044;-85
2022/10/14 09:51:31;;;;;;;33.53;11.93;;;12.50;99.90;;;;;;4215507;28;20055;-84
2022/10/14 09:53:47;;;;;;;33.08;13.32;;;13.30;99.90;;;;;;4215368;28;20443;-85
2022/10/14 09:55:52;;;;;;;29.77;12.93;;;12.50;99.90;;;;;;4216443;28;20044;-85
2022/10/14 09:58:04;;;;;;;31.95;12.65;;;12.50;99.90;;;;;;4216385;28;20047;-85
2022/10/14 10:00:06;;;;;;;28.20;12.02;;;12.40;99.90;;;;;;4215903;28;20040;-85
2022/10/14 10:02:21;;;;;;;36.13;12.60;;;12.50;99.90;;;;;;4216629;28;20048;-85
2022/10/14 10:04:26;;;;;;;31.40;13.15;;;12.50;99.90;;;;;;4216340;28;20040;-84
2022/10/14 10:06:27;;;;;;;33.13;12.82;;;12.50;99.90;;;;;;4214156;28;20040;-85
2022/10/14 10:08:27;;;;;;;31.65;12.18;;;12.60;99.90;;;;;;4215968;28;20032;-85
2022/10/14 10:10:33;;;;;;;37.90;13.23;;;12.50;99.90;;;;;;4214964;28;20051;-85
2022/10/14 10:12:35;;;;;;;28.33;12.52;;;12.50;99.90;;;;;;4214681;28;20122;-84
2022/10/14 10:14:35;;;;;;;30.63;12.88;;;12.60;99.90;;;;;;4197637;28;20052;-85
2022/10/14 10:16:37;;;;;;;32.92;12.98;;;12.60;99.90;;;;;;4216142;28;20036;-85
2022/10/14 10:18:38;;;;;;;31.60;12.25;;;12.60;99.90;;;;;;4214152;28;20040;-85
2022/10/14 10:20:38;;;;;;;33.45;13.88;;;12.70;99.90;;;;;;4216177;28;20056;-85
2022/10/14 10:22:40;;;;;;;33.45;13.23;;;12.60;99.90;;;;;;4197431;28;20052;-85
2022/10/14 10:24:41;;;;;;;30.10;13.13;;;12.70;99.90;;;;;;4215612;28;20046;-85
2022/10/14 10:26:42;;;;;;;29.85;12.27;;;12.70;99.90;;;;;;4216365;28;20071;-85
2022/10/14 10:28:48;;;;;;;29.30;12.65;;;12.70;99.90;;;;;;4215072;28;20043;-85
2022/10/14 10:31:18;;;;;;;28.92;11.95;;;12.70;99.90;;;;;;4216469;28;20047;-84